CYPA

Prince Albert (Glass Field) Airport

Airport
ICAO code
CYPA
Summary
ICAO Region
NAM
ICAO Territory
Location

Prince Albert, Saskatchewan,

Elevation
1405 ft
Coordinates
53° 12' 48" N , 105° 40' 49" W
KCC
Airport BS
Bird Strike
Airport CFIT
Altimeter Temperature Error Correction
Airport GND
Aircraft Ground De/Anti Icing
Airport RE
Landing on Contaminated Runways
Airport WX
Cumulonimbus
Metar
Observation
CYPA 280400Z 04013KT 10SM -SN SCT010 OVC031 M05/M07 A2939 RMK SC3SC5 SLP980
Station
Prince Albert, Sask.
Date/Time
2022-11-28 04:00:00
Wind direction
40°
Wind speed
13 kts
Lowest cloud amount
scattered clouds
Temperature
-5°C
Dew point
-7°C
Humidity
85%
Weather condition
light snow

Description

Regional airport serving Prince Albert, Saskatchewan, Canada.

Climatology

Humid Continental climate (Köppen climate classification Dfb) - Variable weather patterns and a large seasonal temperature variance. Summers are often warm and humid with frequent thunderstorms and winters can be very cold with frequent snowfall and persistent snow cover.

Runways

Designator Length Width Surface Rops
16/34 762 30 GRS No/No
8/26 1524 46 ASP Yes/Yes

Airport map

Aerial View

SKYbrary Partners:

Safety knowledge contributed by: